»·PEaware :: N310PM KSBA-KBUR

N310PM :: KSBA-KBUR

FLIGHT INFORMATION

Flight Status: Arrived
Operator: Privately registered:
United States
More flights under this callsign
Pilot: Patrick M. (27383)
Aircraft: CESSNA 172 SKYHAWK
(C172)
More flights by this aircraft type
Origin: KSBA Santa Barbara Mun
United States
Destination: KBUR Bob Hope-Burbank
United States
More flights between these airports :: More routes between these airports
Route: KSBA KBUR
File this flight plan on PilotEdge
Remarks:
Altitude:
(Current/Filed)
3,500ft
Speed:
(Current/Filed)
100kts
Departed: 22-May-20 07:34 PM
Arrived: 22-May-20 08:12 PM
Distance/Time
Traveled:
74nm/0:38
Distance/Time
To Go:
Arrived

Flight Plot

Page will automatically refresh every two minutes.


Map Options




Map Legend


Flown Route
Filed Route
Departure Airport
Arrival Airport
Navaid (VOR, NDB)
Fix

Horizontal Profiles

Position Reports

Time Latitude Longitude Heading Altitude Ground
Speed
22-May-20 19:21 34.422664 -119.835593 340 10ft 0kts
22-May-20 19:22 34.422664 -119.835593 340 10ft 0kts
22-May-20 19:23 34.422664 -119.835593 340 10ft 0kts
22-May-20 19:24 34.422664 -119.835593 340 10ft 0kts
22-May-20 19:25 34.422664 -119.835593 340 10ft 0kts
22-May-20 19:26 34.422664 -119.835593 340 10ft 0kts
22-May-20 19:27 34.422664 -119.835593 340 10ft 0kts
22-May-20 19:28 34.422870 -119.836485 277 11ft 6kts
22-May-20 19:29 34.424450 -119.837662 344 12ft 20kts
22-May-20 19:30 34.426746 -119.836261 91 10ft 18kts
22-May-20 19:31 34.427106 -119.834619 357 10ft 0kts
22-May-20 19:32 34.427106 -119.834619 357 10ft 0kts
22-May-20 19:33 34.427815 -119.834930 294 10ft 24kts
22-May-20 19:34 34.427746 -119.863722 265 463ft 111kts
22-May-20 19:35 34.426913 -119.901819 271 1201ft 114kts
22-May-20 19:35 34.441964 -119.896262 73 1967ft 94kts
22-May-20 19:37 34.451657 -119.860960 85 3022ft 95kts
22-May-20 19:37 34.454412 -119.834000 86 3610ft 106kts
22-May-20 19:38 34.457831 -119.792315 89 3586ft 133kts
22-May-20 19:39 34.450723 -119.749907 120 3558ft 126kts
22-May-20 19:40 34.430572 -119.714476 123 3479ft 129kts
22-May-20 19:41 34.416674 -119.674177 123 3437ft 128kts
22-May-20 19:42 34.401899 -119.634702 113 3413ft 129kts
22-May-20 19:43 34.388211 -119.595225 119 3493ft 126kts
22-May-20 19:44 34.378487 -119.553141 110 3578ft 129kts
22-May-20 19:45 34.373467 -119.509047 97 3679ft 137kts
22-May-20 19:46 34.369026 -119.462026 105 3547ft 142kts
22-May-20 19:47 34.359831 -119.414968 108 3474ft 144kts
22-May-20 19:48 34.347618 -119.368550 119 3425ft 145kts
22-May-20 19:49 34.334242 -119.321626 104 3432ft 149kts
22-May-20 19:50 34.325677 -119.272262 102 3433ft 150kts
22-May-20 19:51 34.318858 -119.222905 97 3441ft 152kts
22-May-20 19:52 34.313997 -119.172903 97 3504ft 148kts
22-May-20 19:53 34.309597 -119.123170 96 3507ft 149kts
22-May-20 19:54 34.305580 -119.073269 96 3507ft 148kts
22-May-20 19:55 34.300997 -119.023906 98 3500ft 147kts
22-May-20 19:56 34.294840 -118.974783 99 3498ft 147kts
22-May-20 19:57 34.288599 -118.925699 100 3498ft 147kts
22-May-20 19:58 34.281930 -118.876864 100 3498ft 147kts
22-May-20 19:59 34.273598 -118.828277 103 3498ft 147kts
22-May-20 20:00 34.265928 -118.779506 102 3498ft 147kts
22-May-20 20:01 34.258512 -118.730934 103 3495ft 146kts
22-May-20 20:02 34.251226 -118.683380 104 3488ft 136kts
22-May-20 20:03 34.244384 -118.638947 105 3384ft 132kts
22-May-20 20:04 34.237690 -118.595497 106 3219ft 132kts
22-May-20 20:05 34.231106 -118.552738 106 3111ft 127kts
22-May-20 20:06 34.224780 -118.512020 107 3090ft 127kts
22-May-20 20:07 34.211553 -118.476561 115 2928ft 124kts
22-May-20 20:08 34.200010 -118.440637 109 2093ft 119kts
22-May-20 20:09 34.198485 -118.404320 98 1518ft 92kts
22-May-20 20:10 34.198064 -118.376956 106 996ft 67kts
22-May-20 20:11 34.197131 -118.364700 189 719ft 0kts
22-May-20 20:12 34.196896 -118.365017 265 720ft 13kts
22-May-20 20:13 34.196032 -118.366051 8 720ft 5kts
22-May-20 20:14 34.196099 -118.365951 56 720ft 0kts
22-May-20 20:15 34.196099 -118.365951 56 720ft 0kts
22-May-20 20:16 34.196099 -118.365951 56 720ft 0kts
22-May-20 20:17 34.196099 -118.365951 56 720ft 0kts
22-May-20 20:18 34.196099 -118.365951 56 720ft 0kts
22-May-20 20:19 34.196099 -118.365951 56 720ft 0kts
22-May-20 20:20 34.196099 -118.365951 56 720ft 0kts
22-May-20 20:21 34.196099 -118.365951 56 720ft 0kts
22-May-20 20:22 34.196099 -118.365951 56 720ft 0kts
22-May-20 20:23 34.196099 -118.365951 56 720ft 0kts
22-May-20 20:24 34.196099 -118.365951 56 720ft 0kts
22-May-20 20:25 34.196099 -118.365951 56 720ft 0kts

Navigation Log

Ident Type
Flight plan parsing failed, navigation log unavailable